createdAt,value
2019-05-06T00:00:04.732Z,81.90
2019-05-06T00:02:34.056Z,81.80
2019-05-06T00:05:04.148Z,81.70
2019-05-06T00:07:35.250Z,81.80
2019-05-06T00:10:05.778Z,81.90
2019-05-06T00:12:34.928Z,82.10
2019-05-06T00:15:05.997Z,82.30
2019-05-06T00:17:34.947Z,82.40
2019-05-06T00:20:05.949Z,82.20
2019-05-06T00:22:34.475Z,82.10
2019-05-06T00:25:05.383Z,81.70
2019-05-06T00:27:35.633Z,81.70
2019-05-06T00:30:07.105Z,81.60
2019-05-06T00:32:35.569Z,81.40
2019-05-06T00:35:06.193Z,81.50
2019-05-06T00:37:34.939Z,81.80
2019-05-06T00:40:08.128Z,81.80
2019-05-06T00:42:38.246Z,81.70
2019-05-06T00:45:07.857Z,81.60
2019-05-06T00:47:36.482Z,81.30
2019-05-06T00:50:07.117Z,81.10
2019-05-06T00:52:36.669Z,81.20
2019-05-06T00:55:06.193Z,81.60
2019-05-06T00:57:44.240Z,81.90
2019-05-06T01:00:16.375Z,82.50
2019-05-06T01:02:44.915Z,82.30
2019-05-06T01:05:14.406Z,82.00
2019-05-06T01:07:43.987Z,81.70
2019-05-06T01:10:14.446Z,82.10
2019-05-06T01:12:46.485Z,82.30
2019-05-06T01:15:17.508Z,82.30
2019-05-06T01:17:45.993Z,82.60
2019-05-06T01:20:14.905Z,82.60
2019-05-06T01:22:43.742Z,82.70
2019-05-06T01:25:14.209Z,82.80
2019-05-06T01:27:44.428Z,82.90
2019-05-06T01:30:15.381Z,83.10
2019-05-06T01:32:43.962Z,83.10
2019-05-06T01:35:14.080Z,83.00
2019-05-06T01:37:44.519Z,82.90
2019-05-06T01:40:23.942Z,82.70
2019-05-06T01:42:54.331Z,82.70
2019-05-06T01:45:24.915Z,82.60
2019-05-06T01:47:55.273Z,82.40
2019-05-06T01:50:24.002Z,82.30
2019-05-06T01:52:54.049Z,82.40
2019-05-06T01:55:23.879Z,82.40
2019-05-06T01:57:54.501Z,82.50
2019-05-06T02:00:23.730Z,82.50
2019-05-06T02:02:54.612Z,82.40
2019-05-06T02:05:24.251Z,82.20
2019-05-06T02:07:54.933Z,82.10
2019-05-06T02:10:23.842Z,82.00
2019-05-06T02:12:54.024Z,82.00
2019-05-06T02:15:23.920Z,82.00
2019-05-06T02:17:55.006Z,81.90
2019-05-06T02:20:24.640Z,81.80
2019-05-06T02:22:54.927Z,81.50
2019-05-06T02:25:25.095Z,82.20
2019-05-06T02:27:54.137Z,81.30
2019-05-06T02:30:36.570Z,81.50
2019-05-06T02:33:11.293Z,81.40
2019-05-06T02:35:45.592Z,81.40
2019-05-06T02:38:32.600Z,81.40
2019-05-06T02:40:55.371Z,82.20
2019-05-06T02:43:24.246Z,81.40
2019-05-06T02:45:53.234Z,81.40
2019-05-06T02:48:39.019Z,81.40
2019-05-06T02:51:09.222Z,80.90
2019-05-06T02:53:37.801Z,81.00
2019-05-06T02:56:06.336Z,81.20
2019-05-06T02:58:34.838Z,80.90
2019-05-06T03:01:03.895Z,80.90
2019-05-06T03:03:33.627Z,80.90
2019-05-06T03:06:03.785Z,80.90
2019-05-06T03:08:34.746Z,81.00
2019-05-06T03:11:04.162Z,81.00
2019-05-06T03:13:34.176Z,80.80
2019-05-06T03:16:05.677Z,80.60
2019-05-06T03:18:33.190Z,80.70
2019-05-06T03:21:13.809Z,80.30
2019-05-06T03:23:44.033Z,80.40
2019-05-06T03:26:13.717Z,80.40
2019-05-06T03:28:44.132Z,80.60
2019-05-06T03:31:16.227Z,80.70
2019-05-06T03:33:59.743Z,80.70
2019-05-06T03:36:24.137Z,80.40
2019-05-06T03:38:43.873Z,80.40
2019-05-06T03:41:13.939Z,80.40
2019-05-06T03:43:43.648Z,80.30
2019-05-06T03:46:30.130Z,80.00
2019-05-06T03:49:06.241Z,79.90
2019-05-06T03:51:34.802Z,80.10
2019-05-06T03:54:04.797Z,80.30
2019-05-06T03:56:34.411Z,80.50
2019-05-06T03:59:04.731Z,80.40
2019-05-06T04:01:33.789Z,80.00
2019-05-06T04:04:03.597Z,80.20
2019-05-06T04:06:33.565Z,80.60
2019-05-06T04:09:04.906Z,80.30
2019-05-06T04:11:36.359Z,80.40
2019-05-06T04:14:07.006Z,80.70
2019-05-06T04:16:44.052Z,80.00
2019-05-06T04:19:33.334Z,80.10
2019-05-06T04:22:13.043Z,80.60
2019-05-06T04:24:47.373Z,80.40
2019-05-06T04:27:44.854Z,80.80
2019-05-06T04:30:13.920Z,80.80
2019-05-06T04:32:44.006Z,80.90
2019-05-06T04:35:13.906Z,80.90
2019-05-06T04:37:43.270Z,80.60
2019-05-06T04:40:13.975Z,80.50
2019-05-06T04:42:44.479Z,80.20
2019-05-06T04:45:17.415Z,80.30
2019-05-06T04:47:45.790Z,80.50
2019-05-06T04:50:14.883Z,80.60
2019-05-06T04:52:43.668Z,80.50
2019-05-06T04:55:13.979Z,80.40
2019-05-06T04:57:44.989Z,80.30
2019-05-06T05:00:14.183Z,80.10
2019-05-06T05:02:46.314Z,79.50
2019-05-06T05:05:14.066Z,79.20
2019-05-06T05:07:42.950Z,79.50
2019-05-06T05:10:28.201Z,79.50
2019-05-06T05:12:59.748Z,79.80
2019-05-06T05:15:32.538Z,79.90
2019-05-06T05:18:12.978Z,80.00
2019-05-06T05:20:46.287Z,79.80
2019-05-06T05:23:12.074Z,80.00
2019-05-06T05:25:42.420Z,80.30
2019-05-06T05:28:13.113Z,79.80
2019-05-06T05:30:42.937Z,79.60
2019-05-06T05:33:12.207Z,79.50
2019-05-06T05:35:43.276Z,79.50
2019-05-06T05:38:13.049Z,78.80
2019-05-06T05:40:43.010Z,78.30
2019-05-06T05:43:19.336Z,78.60
2019-05-06T05:45:48.361Z,78.90
2019-05-06T05:48:24.681Z,78.90
2019-05-06T05:50:53.285Z,78.70
2019-05-06T05:53:22.525Z,78.70
2019-05-06T05:55:52.717Z,78.90
2019-05-06T05:58:24.557Z,78.80
2019-05-06T06:00:52.137Z,78.90
2019-05-06T06:03:22.055Z,78.70
2019-05-06T06:05:52.465Z,78.80
2019-05-06T06:08:22.863Z,78.40
2019-05-06T06:10:53.445Z,78.30
2019-05-06T06:13:22.325Z,78.30
2019-05-06T06:16:02.930Z,78.00
2019-05-06T06:18:43.099Z,77.90
2019-05-06T06:21:29.545Z,77.90
2019-05-06T06:23:59.836Z,77.70
2019-05-06T06:26:28.295Z,77.50
2019-05-06T06:28:56.833Z,78.30
2019-05-06T06:31:27.098Z,77.90
2019-05-06T06:33:57.565Z,78.00
2019-05-06T06:36:33.751Z,78.30
2019-05-06T06:39:09.949Z,79.20
2019-05-06T06:41:39.064Z,79.50
2019-05-06T06:44:15.528Z,79.60
2019-05-06T06:46:44.081Z,79.40
2019-05-06T06:49:12.810Z,79.30
2019-05-06T06:51:42.540Z,79.40
2019-05-06T06:54:12.270Z,79.50
2019-05-06T06:56:43.255Z,79.40
2019-05-06T06:59:19.428Z,78.90
2019-05-06T07:01:53.113Z,78.60
2019-05-06T07:04:43.090Z,78.80
2019-05-06T07:07:13.277Z,79.30
2019-05-06T07:09:41.966Z,79.90
2019-05-06T07:12:13.168Z,80.00
2019-05-06T07:14:42.779Z,80.10
2019-05-06T07:17:13.265Z,79.50
2019-05-06T07:19:52.760Z,80.00
2019-05-06T07:22:23.271Z,78.80
2019-05-06T07:24:52.712Z,78.60
2019-05-06T07:27:23.303Z,80.00
2019-05-06T07:29:52.390Z,77.90
2019-05-06T07:32:23.054Z,77.60
2019-05-06T07:34:53.134Z,75.50
2019-05-06T07:37:22.132Z,75.40
2019-05-06T07:39:53.051Z,75.30
2019-05-06T07:42:23.274Z,76.60
2019-05-06T07:44:53.401Z,75.60
2019-05-06T07:47:29.232Z,74.10
2019-05-06T07:49:57.816Z,74.20
2019-05-06T07:52:26.281Z,73.80
2019-05-06T07:54:54.820Z,74.80
2019-05-06T07:57:23.469Z,74.30
2019-05-06T07:59:52.531Z,73.40
2019-05-06T08:02:22.877Z,73.60
2019-05-06T08:04:53.221Z,73.60
2019-05-06T08:07:22.393Z,72.90
2019-05-06T08:09:52.974Z,72.50
2019-05-06T08:12:22.376Z,73.50
2019-05-06T08:14:52.400Z,72.60
2019-05-06T08:17:22.824Z,71.70
2019-05-06T08:19:52.934Z,71.50
2019-05-06T08:22:23.259Z,72.10
2019-05-06T08:24:53.221Z,71.50
2019-05-06T08:27:22.767Z,70.30
2019-05-06T08:29:52.677Z,70.10
2019-05-06T08:32:22.763Z,69.00
2019-05-06T08:34:54.608Z,69.50
2019-05-06T08:37:24.744Z,69.20
2019-05-06T08:39:53.366Z,70.00
2019-05-06T08:42:22.472Z,71.40
2019-05-06T08:44:53.489Z,70.30
2019-05-06T08:47:22.412Z,70.90
2019-05-06T08:50:02.459Z,71.00
2019-05-06T08:52:32.793Z,70.90
2019-05-06T08:55:02.893Z,71.00
2019-05-06T08:57:32.437Z,71.40
2019-05-06T09:00:03.561Z,71.10
2019-05-06T09:02:32.482Z,70.90
2019-05-06T09:05:02.903Z,70.80
2019-05-06T09:07:32.041Z,70.70
2019-05-06T09:10:02.638Z,70.60
2019-05-06T09:12:32.931Z,70.40
2019-05-06T09:15:03.525Z,70.60
2019-05-06T09:17:33.034Z,70.70
2019-05-06T09:20:02.672Z,70.20
2019-05-06T09:22:32.569Z,69.00
2019-05-06T09:25:02.419Z,70.10
2019-05-06T09:27:47.881Z,68.20
2019-05-06T09:30:33.087Z,69.10
2019-05-06T09:33:02.662Z,69.80
2019-05-06T09:35:32.921Z,69.70
2019-05-06T09:38:02.198Z,70.20
2019-05-06T09:40:31.894Z,66.60
2019-05-06T09:43:04.467Z,67.80
2019-05-06T09:45:32.882Z,63.80
2019-05-06T09:48:03.592Z,62.90
2019-05-06T09:50:46.100Z,64.50
2019-05-06T09:53:15.449Z,61.50
2019-05-06T09:55:45.570Z,60.20
2019-05-06T09:58:14.122Z,61.80
2019-05-06T10:00:44.433Z,62.20
2019-05-06T10:03:13.510Z,60.30
2019-05-06T10:05:42.544Z,59.30
2019-05-06T10:08:12.403Z,57.90
2019-05-06T10:10:53.697Z,57.30
2019-05-06T10:13:12.888Z,56.60
2019-05-06T10:15:42.816Z,57.70
2019-05-06T10:18:13.593Z,58.60
2019-05-06T10:20:45.091Z,59.70
2019-05-06T10:23:15.015Z,57.70
2019-05-06T10:25:44.128Z,57.40
2019-05-06T10:28:15.081Z,55.50
2019-05-06T10:30:43.557Z,56.40
2019-05-06T10:33:16.668Z,56.40
2019-05-06T10:35:47.245Z,54.10
2019-05-06T10:38:30.725Z,54.40
2019-05-06T10:41:06.719Z,53.90
2019-05-06T10:43:35.603Z,53.60
2019-05-06T10:46:04.313Z,52.30
2019-05-06T10:48:32.856Z,52.10
2019-05-06T10:51:08.567Z,51.10
2019-05-06T10:53:37.045Z,49.20
2019-05-06T10:56:23.194Z,50.00
2019-05-06T10:58:52.748Z,50.10
2019-05-06T11:01:23.361Z,49.90
2019-05-06T11:03:52.499Z,49.20
2019-05-06T11:06:22.108Z,51.40
2019-05-06T11:08:52.525Z,52.00
2019-05-06T11:11:32.536Z,52.20
2019-05-06T11:13:52.230Z,51.60
2019-05-06T11:16:23.748Z,52.00
2019-05-06T11:18:53.484Z,53.50
2019-05-06T11:21:22.591Z,52.20
2019-05-06T11:23:52.669Z,51.60
2019-05-06T11:26:23.541Z,52.80
2019-05-06T11:29:05.467Z,54.30
2019-05-06T11:31:54.246Z,54.10
2019-05-06T11:34:27.700Z,55.20
2019-05-06T11:37:15.060Z,56.30
2019-05-06T11:39:43.830Z,57.60
2019-05-06T11:42:25.149Z,57.30
2019-05-06T11:44:44.126Z,57.80
2019-05-06T11:47:12.798Z,58.20
2019-05-06T11:49:43.920Z,58.60
2019-05-06T11:52:13.036Z,58.20
2019-05-06T11:54:42.259Z,59.60
2019-05-06T11:57:12.576Z,59.40
2019-05-06T11:59:43.094Z,56.70
2019-05-06T12:02:12.943Z,54.50
2019-05-06T12:04:41.969Z,57.80
2019-05-06T12:07:14.618Z,58.80
2019-05-06T12:09:41.037Z,60.40
2019-05-06T12:12:12.597Z,62.60
2019-05-06T12:14:40.128Z,61.40
2019-05-06T12:17:08.715Z,62.80
2019-05-06T12:19:37.946Z,63.00
2019-05-06T12:22:06.495Z,62.50
2019-05-06T12:24:35.029Z,63.30
2019-05-06T12:27:03.495Z,61.80
2019-05-06T12:29:32.881Z,61.30
2019-05-06T12:32:08.782Z,60.60
2019-05-06T12:34:37.341Z,61.60
2019-05-06T12:37:07.991Z,62.50
2019-05-06T12:39:36.543Z,63.70
2019-05-06T12:42:23.333Z,63.30
2019-05-06T12:44:53.542Z,62.80
2019-05-06T12:47:23.661Z,63.60
2019-05-06T12:49:53.318Z,62.30
2019-05-06T12:52:23.143Z,60.60
2019-05-06T12:54:54.233Z,58.90
2019-05-06T12:57:23.521Z,58.70
2019-05-06T12:59:52.983Z,59.30
2019-05-06T13:02:23.793Z,59.80
2019-05-06T13:04:59.810Z,59.10
2019-05-06T13:07:24.364Z,59.70
2019-05-06T13:09:53.055Z,60.80
2019-05-06T13:12:23.477Z,60.10
2019-05-06T13:14:52.717Z,60.60
2019-05-06T13:17:23.359Z,61.00
2019-05-06T13:19:52.380Z,60.20
2019-05-06T13:22:34.736Z,60.00
2019-05-06T13:25:04.166Z,59.40
2019-05-06T13:27:32.936Z,60.00
2019-05-06T13:30:02.376Z,60.60
2019-05-06T13:32:33.077Z,60.50
2019-05-06T13:35:02.905Z,60.90
2019-05-06T13:37:33.584Z,61.20
2019-05-06T13:40:02.370Z,61.10
2019-05-06T13:42:33.302Z,61.10
2019-05-06T13:45:03.011Z,60.00
2019-05-06T13:47:45.107Z,60.80
2019-05-06T13:50:16.691Z,61.70
2019-05-06T13:52:46.567Z,61.40
2019-05-06T13:55:15.282Z,61.30
2019-05-06T13:57:43.903Z,61.90
2019-05-06T14:00:13.592Z,62.90
2019-05-06T14:02:53.374Z,62.90
2019-05-06T14:05:22.353Z,63.40
2019-05-06T14:07:52.739Z,63.90
2019-05-06T14:10:22.189Z,64.50
2019-05-06T14:12:53.205Z,63.90
2019-05-06T14:15:23.256Z,63.40
2019-05-06T14:17:53.162Z,62.50
2019-05-06T14:20:22.925Z,61.70
2019-05-06T14:22:52.715Z,61.40
2019-05-06T14:25:29.495Z,60.90
2019-05-06T14:28:03.125Z,60.60
2019-05-06T14:30:33.190Z,59.20
2019-05-06T14:33:03.251Z,59.40
2019-05-06T14:35:32.496Z,58.80
2019-05-06T14:38:03.236Z,58.90
2019-05-06T14:40:33.196Z,57.10
2019-05-06T14:43:02.261Z,57.80
2019-05-06T14:45:33.260Z,57.60
2019-05-06T14:48:02.161Z,57.70
2019-05-06T14:50:44.255Z,57.90
2019-05-06T14:53:02.699Z,58.10
2019-05-06T14:55:33.023Z,58.70
2019-05-06T14:58:04.301Z,59.80
2019-05-06T15:00:32.024Z,59.90
2019-05-06T15:03:02.164Z,61.30
2019-05-06T15:05:32.585Z,62.40
2019-05-06T15:08:01.079Z,59.10
2019-05-06T15:10:29.550Z,56.70
2019-05-06T15:12:58.056Z,57.00
2019-05-06T15:15:26.548Z,57.00
2019-05-06T15:17:55.211Z,57.70
2019-05-06T15:20:24.226Z,57.10
2019-05-06T15:22:53.051Z,57.90
2019-05-06T15:25:22.306Z,59.40
2019-05-06T15:27:52.987Z,59.80
2019-05-06T15:30:25.772Z,59.60
2019-05-06T15:32:54.260Z,57.60
2019-05-06T15:35:24.446Z,56.60
2019-05-06T15:37:57.409Z,54.60
2019-05-06T15:40:32.854Z,54.50
2019-05-06T15:42:56.367Z,55.00
2019-05-06T15:45:24.934Z,53.70
2019-05-06T15:47:53.528Z,52.00
2019-05-06T15:50:23.075Z,52.50
2019-05-06T15:52:53.883Z,53.30
2019-05-06T15:55:22.566Z,53.50
2019-05-06T15:57:52.758Z,53.50
2019-05-06T16:00:22.864Z,51.50
2019-05-06T16:02:53.122Z,50.20
2019-05-06T16:05:26.165Z,51.40
2019-05-06T16:07:52.941Z,51.80
2019-05-06T16:10:22.548Z,52.40
2019-05-06T16:12:53.457Z,53.00
2019-05-06T16:15:24.498Z,53.30
2019-05-06T16:17:54.092Z,54.80
2019-05-06T16:20:22.769Z,54.20
2019-05-06T16:25:48.931Z,54.10
2019-05-06T16:28:17.669Z,54.10
2019-05-06T16:30:46.294Z,54.30
2019-05-06T16:55:12.544Z,56.00
2019-05-06T16:57:42.884Z,55.00
2019-05-06T17:00:14.214Z,55.40
2019-05-06T17:02:56.510Z,56.00
2019-05-06T17:05:16.580Z,56.50
2019-05-06T17:07:46.200Z,56.70
2019-05-06T17:10:14.964Z,56.60
2019-05-06T17:12:43.496Z,55.50
2019-05-06T17:15:12.103Z,55.80
2019-05-06T17:17:44.402Z,57.00
2019-05-06T17:20:12.219Z,57.50
2019-05-06T17:22:42.335Z,57.40
2019-05-06T17:25:11.329Z,57.30
2019-05-06T17:27:40.881Z,57.10
2019-05-06T17:30:19.540Z,57.20
2019-05-06T17:32:49.648Z,56.70
2019-05-06T17:35:18.301Z,55.80
2019-05-06T17:37:54.477Z,56.10
2019-05-06T17:40:23.651Z,56.40
2019-05-06T17:42:53.416Z,57.40
2019-05-06T17:45:43.117Z,57.80
2019-05-06T17:48:27.232Z,57.00
2019-05-06T17:51:13.307Z,55.90
2019-05-06T17:53:43.117Z,56.10
2019-05-06T17:56:12.567Z,57.00
2019-05-06T17:58:43.746Z,57.00
2019-05-06T18:01:15.461Z,57.10
2019-05-06T18:03:43.978Z,57.20
2019-05-06T18:06:14.201Z,58.10
2019-05-06T18:08:43.344Z,58.50
2019-05-06T18:11:12.906Z,58.40
2019-05-06T18:13:41.903Z,58.20
2019-05-06T18:16:12.988Z,58.40
2019-05-06T18:18:40.828Z,58.70
2019-05-06T18:21:09.371Z,58.40
2019-05-06T18:23:37.981Z,58.60
2019-05-06T18:26:06.994Z,57.90
2019-05-06T18:28:35.494Z,58.40
2019-05-06T18:31:04.167Z,58.10
2019-05-06T18:33:32.998Z,58.00
2019-05-06T18:36:02.541Z,59.10
2019-05-06T18:38:32.911Z,58.50
2019-05-06T18:41:02.308Z,58.10
2019-05-06T18:43:33.191Z,58.40
2019-05-06T18:46:02.826Z,58.20
2019-05-06T18:48:34.532Z,58.10
2019-05-06T18:51:02.986Z,57.80
2019-05-06T18:53:33.068Z,58.50
2019-05-06T18:56:03.093Z,58.60
2019-05-06T18:58:32.362Z,59.30
2019-05-06T19:01:00.922Z,59.60
2019-05-06T19:03:32.059Z,59.80
2019-05-06T19:06:02.336Z,59.80
2019-05-06T19:08:39.467Z,60.20
2019-05-06T19:11:11.840Z,60.50
2019-05-06T19:13:40.250Z,60.40
2019-05-06T19:16:08.731Z,60.70
2019-05-06T19:18:38.715Z,60.80
2019-05-06T19:21:07.585Z,61.10
2019-05-06T19:23:36.039Z,61.40
2019-05-06T19:26:04.633Z,61.80
2019-05-06T19:28:33.162Z,62.10
2019-05-06T19:31:03.111Z,62.10
2019-05-06T19:33:34.217Z,62.10
2019-05-06T19:36:03.864Z,62.10
2019-05-06T19:38:32.998Z,62.10
2019-05-06T19:41:05.502Z,62.30
2019-05-06T19:43:32.952Z,62.50
2019-05-06T19:46:02.576Z,62.80
2019-05-06T19:48:32.840Z,63.20
2019-05-06T19:51:03.077Z,63.50
2019-05-06T19:53:32.351Z,63.70
2019-05-06T19:56:02.798Z,63.70
2019-05-06T19:58:31.715Z,63.50
2019-05-06T20:01:02.338Z,64.00
2019-05-06T20:03:32.704Z,63.60
2019-05-06T20:06:06.017Z,64.40
2019-05-06T20:08:44.765Z,63.90
2019-05-06T20:11:18.019Z,64.10
2019-05-06T20:13:46.536Z,64.30
2019-05-06T20:16:15.020Z,64.50
2019-05-06T20:18:43.474Z,64.80
2019-05-06T20:21:12.056Z,64.90
2019-05-06T20:23:42.488Z,65.40
2019-05-06T20:26:12.397Z,65.50
2019-05-06T20:28:42.953Z,65.80
2019-05-06T20:31:11.271Z,65.90
2019-05-06T20:33:42.142Z,66.10
2019-05-06T20:36:12.610Z,66.40
2019-05-06T20:38:42.359Z,66.50
2019-05-06T20:41:12.591Z,66.60
2019-05-06T20:43:42.344Z,66.30
2019-05-06T20:46:12.444Z,66.70
2019-05-06T20:48:42.158Z,66.70
2019-05-06T20:51:12.593Z,66.80
2019-05-06T20:53:43.156Z,66.80
2019-05-06T20:56:12.354Z,66.80
2019-05-06T20:58:41.996Z,66.50
2019-05-06T21:01:10.888Z,66.60
2019-05-06T21:03:39.353Z,66.60
2019-05-06T21:06:07.813Z,66.70
2019-05-06T21:08:36.295Z,66.80
2019-05-06T21:11:04.804Z,66.80
2019-05-06T21:13:35.564Z,67.10
2019-05-06T21:16:03.529Z,66.90
2019-05-06T21:18:32.552Z,66.90
2019-05-06T21:21:02.049Z,66.90
2019-05-06T21:23:32.106Z,67.10
2019-05-06T21:26:03.115Z,67.30
2019-05-06T21:28:31.212Z,67.50
2019-05-06T21:30:59.747Z,67.60
2019-05-06T21:33:28.322Z,67.70
2019-05-06T21:35:56.775Z,67.90
2019-05-06T21:38:25.263Z,68.00
2019-05-06T21:40:54.118Z,68.10
2019-05-06T21:43:22.840Z,68.30
2019-05-06T21:45:53.953Z,68.40
2019-05-06T21:48:22.243Z,68.20
2019-05-06T21:50:52.202Z,67.80
2019-05-06T21:53:22.912Z,68.00
2019-05-06T21:55:52.539Z,68.20
2019-05-06T21:58:23.125Z,68.30
2019-05-06T22:00:54.067Z,68.60
2019-05-06T22:03:23.040Z,69.30
2019-05-06T22:05:54.320Z,69.80
2019-05-06T22:08:23.803Z,70.00
2019-05-06T22:10:52.924Z,70.00
2019-05-06T22:13:21.947Z,70.20
2019-05-06T22:15:50.529Z,70.80
2019-05-06T22:18:18.997Z,71.00
2019-05-06T22:20:54.571Z,70.90
2019-05-06T22:23:23.127Z,71.10
2019-05-06T22:25:51.683Z,71.40
2019-05-06T22:28:20.141Z,71.60
2019-05-06T22:30:48.624Z,71.50
2019-05-06T22:33:17.495Z,71.30
2019-05-06T22:35:45.989Z,71.70
2019-05-06T22:38:14.477Z,72.00
2019-05-06T22:40:43.043Z,72.30
2019-05-06T22:43:12.337Z,72.60
2019-05-06T22:45:42.526Z,72.90
2019-05-06T22:48:12.087Z,73.20
2019-05-06T22:50:42.423Z,73.40
2019-05-06T22:53:13.061Z,74.00
2019-05-06T22:55:42.819Z,74.30
2019-05-06T22:58:12.084Z,74.60
2019-05-06T23:00:42.589Z,75.10
2019-05-06T23:03:13.000Z,74.70
2019-05-06T23:05:42.306Z,74.90
2019-05-06T23:08:12.266Z,75.10
2019-05-06T23:10:42.264Z,75.00
2019-05-06T23:13:12.420Z,75.00
2019-05-06T23:15:42.098Z,75.10
2019-05-06T23:18:10.856Z,74.90
2019-05-06T23:20:39.393Z,74.80
2019-05-06T23:23:07.952Z,74.20
2019-05-06T23:25:36.433Z,74.80
2019-05-06T23:28:05.153Z,75.10
2019-05-06T23:30:33.786Z,75.00
2019-05-06T23:33:02.430Z,74.80
2019-05-06T23:49:57.140Z,74.50
2019-05-06T23:53:02.958Z,74.50
2019-05-06T23:56:08.228Z,75.00
2019-05-06T23:58:36.727Z,75.80
